Time;durP1;ratioP1;P1;durP2;ratioP2;P2;SDS_P1;SDS_P2;PMS_P1;PMS_P2;Temp;Humidity;BMP_temperature;BMP_pressure;BME280_temperature;BME280_humidity;BME280_pressure;Samples;Min_cycle;Max_cycle;Signal;HPM_P1;HPM_P2
2021/03/26 00:01:22;;;;;;;0.10;0.10;;;;;;;;;;5093033;28;20163;-69
2021/03/26 00:03:50;;;;;;;1.10;1.08;;;;;;;;;;5087525;28;20184;-68
2021/03/26 00:06:18;;;;;;;1.35;1.17;;;;;;;;;;5072806;28;20188;-68
2021/03/26 00:08:44;;;;;;;0.75;0.75;;;;;;;;;;5054860;28;20173;-68
2021/03/26 00:11:11;;;;;;;0.80;0.80;;;;;;;;;;5072828;28;20212;-68
2021/03/26 00:13:38;;;;;;;0.65;0.65;;;;;;;;;;5072652;28;20167;-68
2021/03/26 00:16:04;;;;;;;1.30;0.70;;;;;;;;;;5072615;28;20203;-68
2021/03/26 00:18:30;;;;;;;0.52;0.52;;;;;;;;;;5072719;28;20172;-68
2021/03/26 00:20:56;;;;;;;6.13;1.00;;;;;;;;;;5054673;28;20173;-69
2021/03/26 00:23:22;;;;;;;0.90;0.90;;;;;;;;;;5072616;28;20172;-67
2021/03/26 00:25:48;;;;;;;2.63;1.17;;;;;;;;;;5072477;28;20200;-67
2021/03/26 00:28:15;;;;;;;0.47;0.47;;;;;;;;;;5072463;28;20175;-69
2021/03/26 00:30:41;;;;;;;0.75;0.75;;;;;;;;;;5054454;28;20181;-69
2021/03/26 00:33:09;;;;;;;1.05;0.95;;;;;;;;;;5072454;28;20172;-66
2021/03/26 00:35:36;;;;;;;0.73;0.73;;;;;;;;;;5054157;28;20216;-68
2021/03/26 00:38:03;;;;;;;0.20;0.20;;;;;;;;;;5054389;28;20180;-69
2021/03/26 00:40:29;;;;;;;1.30;1.27;;;;;;;;;;5054290;28;20219;-68
2021/03/26 00:42:55;;;;;;;1.23;1.05;;;;;;;;;;5054268;28;20681;-69
2021/03/26 00:45:23;;;;;;;1.27;1.23;;;;;;;;;;5078224;28;20204;-69
2021/03/26 00:47:50;;;;;;;0.68;0.68;;;;;;;;;;5074205;28;20296;-68
2021/03/26 00:50:24;;;;;;;0.52;0.52;;;;;;;;;;5091955;28;20220;-69
2021/03/26 00:52:51;;;;;;;1.58;1.23;;;;;;;;;;5073966;28;20179;-68
2021/03/26 00:55:17;;;;;;;0.30;0.30;;;;;;;;;;5091879;28;20207;-69
2021/03/26 00:57:43;;;;;;;2.90;2.78;;;;;;;;;;5091976;28;20164;-69
2021/03/26 01:00:13;;;;;;;1.35;1.33;;;;;;;;;;5091883;28;20575;-69
2021/03/26 01:02:39;;;;;;;1.20;0.70;;;;;;;;;;5073864;28;20179;-69
2021/03/26 01:05:09;;;;;;;3.30;0.93;;;;;;;;;;5091861;28;20275;-68
2021/03/26 01:07:35;;;;;;;0.30;0.30;;;;;;;;;;5091774;28;20166;-69
2021/03/26 01:10:01;;;;;;;9.50;1.55;;;;;;;;;;5073351;28;20215;-69
2021/03/26 01:12:27;;;;;;;0.75;0.75;;;;;;;;;;5073390;28;20237;-69
2021/03/26 01:14:53;;;;;;;0.20;0.20;;;;;;;;;;5091364;28;20219;-69
2021/03/26 01:17:19;;;;;;;0.68;0.68;;;;;;;;;;5091446;28;20164;-68
2021/03/26 01:19:47;;;;;;;1.23;1.23;;;;;;;;;;5091496;28;20195;-69
2021/03/26 01:22:13;;;;;;;5.53;3.60;;;;;;;;;;5091447;28;20235;-69
2021/03/26 01:24:40;;;;;;;1.20;1.17;;;;;;;;;;5091387;28;20245;-69
2021/03/26 01:27:06;;;;;;;0.20;0.20;;;;;;;;;;5073295;28;20183;-69
2021/03/26 01:29:32;;;;;;;0.43;0.43;;;;;;;;;;5091147;28;20196;-69
2021/03/26 01:31:58;;;;;;;2.30;1.52;;;;;;;;;;5091211;28;20171;-69
2021/03/26 01:34:24;;;;;;;0.10;0.10;;;;;;;;;;5091212;28;20660;-69
2021/03/26 01:36:51;;;;;;;0.77;0.77;;;;;;;;;;5091275;28;20171;-69
2021/03/26 01:39:18;;;;;;;0.77;0.77;;;;;;;;;;5091136;28;20225;-70
2021/03/26 01:41:46;;;;;;;0.13;0.13;;;;;;;;;;5073136;28;20183;-69
2021/03/26 01:44:13;;;;;;;0.95;0.95;;;;;;;;;;5091086;28;20532;-69
2021/03/26 01:46:39;;;;;;;1.40;1.40;;;;;;;;;;5091156;28;20156;-69
2021/03/26 01:49:06;;;;;;;0.93;0.93;;;;;;;;;;5090714;28;20224;-70
2021/03/26 01:51:34;;;;;;;6.32;2.15;;;;;;;;;;5090925;28;20175;-70
2021/03/26 01:54:01;;;;;;;0.50;0.50;;;;;;;;;;5090795;28;20191;-69
2021/03/26 01:56:28;;;;;;;0.50;0.50;;;;;;;;;;5090892;28;20168;-69
2021/03/26 01:58:55;;;;;;;0.43;0.43;;;;;;;;;;5072659;28;20198;-69
2021/03/26 02:01:23;;;;;;;0.10;0.10;;;;;;;;;;5072841;28;20172;-69
2021/03/26 02:03:51;;;;;;;1.08;1.00;;;;;;;;;;5072673;28;20183;-69
2021/03/26 02:06:17;;;;;;;19.10;2.55;;;;;;;;;;5072803;28;20172;-69
2021/03/26 02:08:44;;;;;;;1.75;1.65;;;;;;;;;;5090567;28;20294;-69
2021/03/26 02:11:29;;;;;;;0.20;0.20;;;;;;;;;;5090489;28;20164;-69
2021/03/26 02:13:56;;;;;;;1.80;1.52;;;;;;;;;;5090449;28;20188;-69
2021/03/26 02:16:23;;;;;;;1.70;1.60;;;;;;;;;;5072515;28;20222;-69
2021/03/26 02:18:50;;;;;;;0.30;0.30;;;;;;;;;;5090321;28;20219;-69
2021/03/26 02:21:24;;;;;;;1.52;1.52;;;;;;;;;;5089785;28;20160;-69
2021/03/26 02:23:52;;;;;;;1.33;1.23;;;;;;;;;;5090288;28;20164;-69
2021/03/26 02:26:21;;;;;;;1.55;1.45;;;;;;;;;;5072191;28;20172;-69
2021/03/26 02:28:48;;;;;;;0.40;0.40;;;;;;;;;;5072252;28;20656;-68
2021/03/26 02:31:15;;;;;;;0.65;0.65;;;;;;;;;;5090148;28;20157;-69
2021/03/26 02:33:42;;;;;;;0.35;0.35;;;;;;;;;;5074488;28;20207;-69
2021/03/26 02:36:17;;;;;;;3.15;2.75;;;;;;;;;;5070064;28;20171;-69
2021/03/26 02:38:46;;;;;;;0.63;0.63;;;;;;;;;;5052174;28;20713;-69
2021/03/26 02:41:24;;;;;;;0.55;0.55;;;;;;;;;;5070005;28;20206;-69
2021/03/26 02:44:00;;;;;;;2.97;2.78;;;;;;;;;;5069849;28;20263;-69
2021/03/26 02:46:33;;;;;;;0.35;0.35;;;;;;;;;;5069928;28;20167;-69
2021/03/26 02:49:11;;;;;;;1.55;1.45;;;;;;;;;;5069590;28;20228;-70
2021/03/26 02:51:39;;;;;;;0.30;0.30;;;;;;;;;;5069861;28;20171;-69
2021/03/26 02:54:28;;;;;;;0.28;0.28;;;;;;;;;;5069647;28;20206;-69
2021/03/26 02:56:59;;;;;;;0.35;0.32;;;;;;;;;;5069506;28;20167;-70
2021/03/26 02:59:30;;;;;;;0.10;0.10;;;;;;;;;;5051654;28;20594;-69
2021/03/26 03:01:56;;;;;;;0.57;0.57;;;;;;;;;;5051383;28;20188;-69
2021/03/26 03:04:27;;;;;;;0.32;0.32;;;;;;;;;;5051560;28;20614;-70
2021/03/26 03:06:57;;;;;;;0.40;0.40;;;;;;;;;;5051436;28;20236;-69
2021/03/26 03:09:24;;;;;;;1.35;1.00;;;;;;;;;;5069322;28;20221;-69
2021/03/26 03:12:05;;;;;;;0.10;0.10;;;;;;;;;;5051338;28;20175;-69
2021/03/26 03:14:39;;;;;;;0.85;0.85;;;;;;;;;;5051244;28;20217;-69
2021/03/26 03:17:11;;;;;;;1.77;1.63;;;;;;;;;;5051189;28;20168;-70
2021/03/26 03:19:52;;;;;;;0.50;0.50;;;;;;;;;;5069253;28;20161;-69
2021/03/26 03:22:28;;;;;;;0.22;0.22;;;;;;;;;;5051216;28;20202;-69
2021/03/26 03:24:56;;;;;;;0.80;0.80;;;;;;;;;;5069122;28;20164;-69
2021/03/26 03:27:22;;;;;;;0.20;0.20;;;;;;;;;;5069093;28;20203;-69
2021/03/26 03:29:51;;;;;;;3.17;1.00;;;;;;;;;;5069031;28;20164;-69
2021/03/26 03:32:44;;;;;;;0.20;0.20;;;;;;;;;;5068313;28;20227;-70
2021/03/26 03:35:42;;;;;;;0.10;0.10;;;;;;;;;;5065012;28;20223;-69
2021/03/26 03:38:29;;;;;;;0.40;0.40;;;;;;;;;;4987685;28;20187;-69
2021/03/26 03:40:57;;;;;;;0.70;0.70;;;;;;;;;;4958844;28;20187;-68
2021/03/26 03:43:30;;;;;;;1.75;1.73;;;;;;;;;;4971530;28;20199;-68
2021/03/26 03:45:59;;;;;;;0.10;0.10;;;;;;;;;;4987840;28;20195;-69
2021/03/26 03:48:28;;;;;;;0.57;0.57;;;;;;;;;;4971259;28;20227;-69
2021/03/26 03:51:08;;;;;;;0.30;0.30;;;;;;;;;;4987840;28;20187;-68
2021/03/26 03:53:34;;;;;;;0.10;0.10;;;;;;;;;;4971373;28;20242;-68
2021/03/26 03:56:09;;;;;;;0.57;0.57;;;;;;;;;;4971499;28;20293;-69
2021/03/26 03:58:38;;;;;;;0.32;0.32;;;;;;;;;;4987447;28;20174;-69
2021/03/26 04:01:09;;;;;;;0.57;0.57;;;;;;;;;;4971486;28;20191;-68
2021/03/26 04:03:38;;;;;;;0.25;0.25;;;;;;;;;;4971288;28;20210;-69
2021/03/26 04:06:10;;;;;;;3.65;1.13;;;;;;;;;;4987603;28;20172;-69
2021/03/26 04:08:39;;;;;;;1.85;1.75;;;;;;;;;;4987641;28;20202;-69
2021/03/26 04:11:15;;;;;;;0.43;0.43;;;;;;;;;;4971504;28;20182;-68
2021/03/26 04:13:47;;;;;;;0.30;0.30;;;;;;;;;;5027653;28;20204;-68
2021/03/26 04:16:15;;;;;;;0.75;0.75;;;;;;;;;;5050676;28;20173;-69
2021/03/26 04:18:45;;;;;;;1.30;1.30;;;;;;;;;;5050596;28;20240;-69
2021/03/26 04:21:13;;;;;;;0.30;0.30;;;;;;;;;;5068494;28;20255;-68
2021/03/26 04:23:42;;;;;;;0.52;0.52;;;;;;;;;;5050505;28;20196;-69
2021/03/26 04:26:14;;;;;;;0.35;0.35;;;;;;;;;;5068263;28;20186;-69
2021/03/26 04:28:43;;;;;;;1.23;1.23;;;;;;;;;;5068555;28;20157;-69
2021/03/26 04:31:11;;;;;;;1.00;0.80;;;;;;;;;;5068347;28;20243;-69
2021/03/26 04:33:37;;;;;;;1.45;1.42;;;;;;;;;;5050319;28;20349;-69
2021/03/26 04:36:05;;;;;;;0.43;0.43;;;;;;;;;;5068317;28;20188;-69
2021/03/26 04:38:36;;;;;;;0.22;0.22;;;;;;;;;;5050415;28;20252;-68
2021/03/26 04:41:06;;;;;;;0.57;0.57;;;;;;;;;;5068147;28;20156;-69
2021/03/26 04:43:36;;;;;;;0.88;0.88;;;;;;;;;;5068136;28;20189;-69
2021/03/26 04:46:21;;;;;;;0.35;0.35;;;;;;;;;;5071796;28;20156;-69
2021/03/26 04:48:50;;;;;;;0.82;0.82;;;;;;;;;;5071368;28;20223;-68
2021/03/26 04:51:25;;;;;;;0.68;0.68;;;;;;;;;;5053494;28;20181;-69
2021/03/26 04:54:01;;;;;;;0.05;0.05;;;;;;;;;;5053379;28;20196;-69
2021/03/26 04:56:30;;;;;;;0.10;0.10;;;;;;;;;;5053541;28;20169;-69
2021/03/26 04:58:58;;;;;;;0.40;0.40;;;;;;;;;;5071421;28;20191;-69
2021/03/26 05:01:25;;;;;;;0.70;0.70;;;;;;;;;;5070984;28;20186;-68
2021/03/26 05:03:58;;;;;;;0.05;0.05;;;;;;;;;;5053200;28;20258;-69
2021/03/26 05:06:28;;;;;;;0.63;0.63;;;;;;;;;;5071467;28;20149;-69
2021/03/26 05:09:00;;;;;;;0.65;0.65;;;;;;;;;;5070992;28;20164;-69
2021/03/26 05:11:29;;;;;;;0.10;0.10;;;;;;;;;;5053027;28;20198;-69
2021/03/26 05:14:00;;;;;;;2.80;1.67;;;;;;;;;;5070924;28;20208;-69
2021/03/26 05:16:26;;;;;;;2.33;2.22;;;;;;;;;;5070928;28;20157;-68
2021/03/26 05:18:57;;;;;;;0.20;0.20;;;;;;;;;;5070694;28;20160;-69
2021/03/26 05:21:28;;;;;;;0.10;0.10;;;;;;;;;;5070543;28;20243;-69
2021/03/26 05:24:04;;;;;;;1.15;1.15;;;;;;;;;;5070753;28;20195;-69
2021/03/26 05:26:33;;;;;;;2.33;0.82;;;;;;;;;;5053016;28;20176;-69
2021/03/26 05:28:59;;;;;;;1.05;1.05;;;;;;;;;;5070685;28;20160;-70
2021/03/26 05:31:39;;;;;;;4.97;2.95;;;;;;;;;;5052843;28;20165;-69
2021/03/26 05:34:22;;;;;;;0.15;0.15;;;;;;;;;;5070629;28;20267;-69
2021/03/26 05:36:56;;;;;;;0.60;0.60;;;;;;;;;;5070677;28;20165;-69
2021/03/26 05:39:27;;;;;;;0.10;0.10;;;;;;;;;;5052622;28;20163;-69
2021/03/26 05:42:12;;;;;;;0.38;0.38;;;;;;;;;;5070633;28;20224;-68
2021/03/26 05:44:56;;;;;;;0.77;0.77;;;;;;;;;;5070471;28;20169;-69
2021/03/26 05:47:25;;;;;;;1.88;1.40;;;;;;;;;;5070428;28;20524;-69
2021/03/26 05:50:10;;;;;;;0.65;0.65;;;;;;;;;;5036617;28;20252;-69
2021/03/26 05:52:45;;;;;;;0.32;0.32;;;;;;;;;;5050066;28;20261;-69
2021/03/26 05:55:17;;;;;;;1.08;0.57;;;;;;;;;;5049991;28;20181;-69
2021/03/26 05:58:05;;;;;;;0.40;0.40;;;;;;;;;;5049540;28;20168;-69
2021/03/26 06:00:32;;;;;;;2.55;2.03;;;;;;;;;;5050160;28;20166;-69
2021/03/26 06:03:05;;;;;;;0.80;0.80;;;;;;;;;;5032418;28;20205;-69
2021/03/26 06:05:41;;;;;;;0.40;0.40;;;;;;;;;;5049898;28;20166;-69
2021/03/26 06:08:26;;;;;;;1.80;1.70;;;;;;;;;;5050005;28;20168;-70
2021/03/26 06:11:06;;;;;;;0.10;0.10;;;;;;;;;;5049690;28;20240;-69
2021/03/26 06:13:38;;;;;;;1.77;1.38;;;;;;;;;;5049745;28;20197;-69
2021/03/26 06:16:17;;;;;;;0.65;0.65;;;;;;;;;;5049711;28;20193;-70
2021/03/26 06:18:49;;;;;;;0.75;0.75;;;;;;;;;;5032096;28;20175;-69
2021/03/26 06:21:23;;;;;;;0.45;0.45;;;;;;;;;;5032222;28;20259;-69
2021/03/26 06:24:25;;;;;;;0.88;0.88;;;;;;;;;;5031714;28;20220;-69
2021/03/26 06:27:00;;;;;;;0.85;0.85;;;;;;;;;;4949827;29;20194;-69
2021/03/26 06:29:38;;;;;;;0.73;0.73;;;;;;;;;;4949934;29;20188;-69
2021/03/26 06:32:23;;;;;;;2.20;1.63;;;;;;;;;;4949756;29;20236;-69
2021/03/26 06:34:49;;;;;;;1.38;1.27;;;;;;;;;;4949412;29;20223;-69
2021/03/26 06:37:27;;;;;;;0.85;0.82;;;;;;;;;;4950072;29;20185;-69
2021/03/26 06:39:56;;;;;;;1.17;1.17;;;;;;;;;;4949883;29;20331;-68
2021/03/26 06:42:48;;;;;;;0.38;0.38;;;;;;;;;;4949808;29;20200;-70
2021/03/26 06:45:31;;;;;;;1.75;1.15;;;;;;;;;;4912338;29;20207;-69
2021/03/26 06:48:12;;;;;;;0.82;0.82;;;;;;;;;;4949620;29;20195;-70
2021/03/26 06:50:57;;;;;;;0.30;0.30;;;;;;;;;;4968453;29;20172;-68
2021/03/26 06:53:32;;;;;;;0.57;0.57;;;;;;;;;;4968472;29;20202;-68
2021/03/26 06:56:17;;;;;;;1.65;1.55;;;;;;;;;;4968707;29;20225;-69
2021/03/26 06:58:49;;;;;;;3.10;2.53;;;;;;;;;;4968951;29;20164;-70
2021/03/26 07:01:33;;;;;;;2.95;2.53;;;;;;;;;;5023495;28;20272;-70
2021/03/26 07:04:19;;;;;;;5.50;1.52;;;;;;;;;;5030744;28;20252;-69
2021/03/26 07:06:56;;;;;;;1.20;1.20;;;;;;;;;;5048783;28;20157;-69
2021/03/26 07:09:37;;;;;;;0.40;0.40;;;;;;;;;;5049105;28;20157;-69
2021/03/26 07:12:06;;;;;;;2.55;2.35;;;;;;;;;;5048213;28;20181;-67
2021/03/26 07:14:41;;;;;;;1.15;1.15;;;;;;;;;;5047740;28;20204;-67
2021/03/26 07:17:23;;;;;;;0.85;0.85;;;;;;;;;;5047818;28;20172;-69
2021/03/26 07:19:52;;;;;;;0.73;0.73;;;;;;;;;;5048915;28;20173;-68
2021/03/26 07:22:32;;;;;;;2.80;2.60;;;;;;;;;;5030540;28;20292;-70
2021/03/26 07:25:21;;;;;;;2.60;1.15;;;;;;;;;;5030938;28;20560;-71
2021/03/26 07:28:06;;;;;;;0.45;0.38;;;;;;;;;;5012416;28;20327;-68
2021/03/26 07:30:39;;;;;;;6.70;2.40;;;;;;;;;;5048649;28;20169;-70
2021/03/26 07:33:21;;;;;;;2.75;2.38;;;;;;;;;;5048397;28;20215;-70
2021/03/26 07:36:06;;;;;;;21.83;1.52;;;;;;;;;;5048815;28;20197;-70
2021/03/26 07:38:45;;;;;;;12.20;1.38;;;;;;;;;;5048765;28;20153;-69
2021/03/26 07:41:22;;;;;;;4.32;2.50;;;;;;;;;;5030432;28;20169;-70
2021/03/26 07:43:51;;;;;;;1.50;1.45;;;;;;;;;;5048616;28;20192;-71
2021/03/26 07:46:24;;;;;;;2.67;1.63;;;;;;;;;;5048534;28;20212;-70
2021/03/26 07:49:10;;;;;;;2.22;1.90;;;;;;;;;;5030628;28;20286;-71
2021/03/26 07:51:41;;;;;;;0.82;0.82;;;;;;;;;;5048768;28;20160;-70
2021/03/26 07:54:10;;;;;;;4.15;2.65;;;;;;;;;;5048454;28;20607;-69
2021/03/26 07:56:37;;;;;;;1.23;0.73;;;;;;;;;;5030034;28;20165;-69
2021/03/26 07:59:12;;;;;;;2.30;2.20;;;;;;;;;;5046507;28;20154;-69
2021/03/26 08:01:53;;;;;;;3.10;1.02;;;;;;;;;;5046073;28;20311;-69
2021/03/26 08:04:38;;;;;;;1.92;1.40;;;;;;;;;;5046293;28;20191;-69
2021/03/26 08:07:34;;;;;;;3.10;1.60;;;;;;;;;;5046316;28;20173;-69
2021/03/26 08:10:09;;;;;;;5.63;1.63;;;;;;;;;;4958423;28;20200;-69
2021/03/26 08:12:53;;;;;;;1.77;1.67;;;;;;;;;;5046844;28;20218;-69
2021/03/26 08:15:27;;;;;;;2.88;1.88;;;;;;;;;;5038458;28;20213;-69
2021/03/26 08:18:07;;;;;;;5.38;3.35;;;;;;;;;;5030615;28;20196;-69
2021/03/26 08:20:36;;;;;;;1.52;1.42;;;;;;;;;;5023799;28;20388;-70
2021/03/26 08:23:09;;;;;;;1.75;1.65;;;;;;;;;;5033093;28;20196;-69
2021/03/26 08:25:53;;;;;;;2.25;1.48;;;;;;;;;;5052007;28;20173;-69
2021/03/26 08:28:29;;;;;;;1.20;1.17;;;;;;;;;;5033450;28;20185;-69
2021/03/26 08:30:55;;;;;;;0.88;0.88;;;;;;;;;;5062424;28;20263;-69
2021/03/26 08:33:30;;;;;;;2.05;1.55;;;;;;;;;;5070795;28;20164;-69
2021/03/26 08:36:06;;;;;;;1.45;1.27;;;;;;;;;;5071956;28;20222;-68
2021/03/26 08:38:51;;;;;;;1.85;1.33;;;;;;;;;;5071734;28;20220;-68
2021/03/26 08:41:22;;;;;;;1.50;0.85;;;;;;;;;;5071622;28;20188;-69
2021/03/26 08:43:50;;;;;;;1.38;1.27;;;;;;;;;;5052625;28;20164;-68
2021/03/26 08:46:18;;;;;;;1.17;1.17;;;;;;;;;;5071506;28;20159;-69
2021/03/26 08:48:57;;;;;;;2.50;1.15;;;;;;;;;;5077517;28;20243;-68
2021/03/26 08:51:35;;;;;;;1.85;1.42;;;;;;;;;;5091448;28;20190;-68
2021/03/26 08:54:20;;;;;;;9.02;1.00;;;;;;;;;;5073446;28;20174;-69
2021/03/26 08:57:05;;;;;;;0.57;0.57;;;;;;;;;;5073241;28;20167;-68
2021/03/26 08:59:55;;;;;;;1.33;1.25;;;;;;;;;;5073384;28;20171;-69
2021/03/26 09:02:39;;;;;;;1.83;1.73;;;;;;;;;;5027675;28;20302;-69
2021/03/26 09:05:24;;;;;;;4.15;1.20;;;;;;;;;;5072972;28;20309;-69
2021/03/26 09:08:13;;;;;;;1.50;1.35;;;;;;;;;;5090452;28;20163;-69
2021/03/26 09:10:58;;;;;;;3.17;1.90;;;;;;;;;;5090883;28;20172;-69
2021/03/26 09:13:45;;;;;;;2.08;1.90;;;;;;;;;;5091020;28;20191;-69
2021/03/26 09:16:17;;;;;;;1.30;1.23;;;;;;;;;;5073017;28;20214;-68
2021/03/26 09:18:49;;;;;;;2.78;1.10;;;;;;;;;;5091342;28;20168;-69
2021/03/26 09:21:38;;;;;;;5.20;1.75;;;;;;;;;;5091037;28;20167;-69
2021/03/26 09:24:15;;;;;;;1.08;0.88;;;;;;;;;;5073057;28;20183;-69
2021/03/26 09:26:48;;;;;;;2.03;1.88;;;;;;;;;;5051233;28;20266;-69
2021/03/26 09:29:34;;;;;;;1.55;0.60;;;;;;;;;;5069906;28;20181;-69
2021/03/26 09:32:20;;;;;;;5.88;1.25;;;;;;;;;;5052185;28;20210;-69
2021/03/26 09:35:10;;;;;;;7.82;1.73;;;;;;;;;;5049673;28;20264;-69
2021/03/26 09:37:40;;;;;;;1.40;1.30;;;;;;;;;;5040226;28;20252;-69
2021/03/26 09:40:11;;;;;;;1.10;1.00;;;;;;;;;;5050444;28;20218;-71
2021/03/26 09:42:39;;;;;;;0.85;0.85;;;;;;;;;;5050439;28;20310;-71
2021/03/26 09:45:09;;;;;;;1.17;1.05;;;;;;;;;;5049324;28;20176;-70
2021/03/26 09:47:39;;;;;;;1.25;0.57;;;;;;;;;;5031234;28;20203;-69
2021/03/26 09:50:23;;;;;;;0.47;0.35;;;;;;;;;;5031346;28;20254;-68
2021/03/26 09:52:50;;;;;;;0.85;0.63;;;;;;;;;;5049216;28;20225;-71
2021/03/26 09:55:23;;;;;;;1.83;1.38;;;;;;;;;;5048981;28;20248;-72
2021/03/26 09:57:53;;;;;;;0.85;0.65;;;;;;;;;;5031250;28;20188;-71
2021/03/26 10:00:31;;;;;;;1.65;1.55;;;;;;;;;;5049706;28;20161;-72
2021/03/26 10:03:27;;;;;;;2.28;0.38;;;;;;;;;;5049591;28;20161;-71
2021/03/26 10:06:02;;;;;;;1.45;1.35;;;;;;;;;;5033050;28;20271;-72
2021/03/26 10:08:48;;;;;;;3.85;1.33;;;;;;;;;;5049759;28;20279;-71
2021/03/26 10:11:29;;;;;;;0.60;0.55;;;;;;;;;;5049984;28;20243;-71
2021/03/26 10:13:55;;;;;;;1.58;1.08;;;;;;;;;;5050117;28;20165;-71
2021/03/26 10:16:28;;;;;;;1.73;1.23;;;;;;;;;;5032157;28;20165;-70
2021/03/26 10:19:00;;;;;;;0.30;0.30;;;;;;;;;;5049391;28;20197;-70
2021/03/26 10:21:27;;;;;;;1.05;0.95;;;;;;;;;;5032256;28;20176;-69
2021/03/26 10:23:54;;;;;;;0.88;0.88;;;;;;;;;;5049682;28;20166;-70
2021/03/26 10:26:38;;;;;;;2.42;1.75;;;;;;;;;;5048714;28;20168;-70
2021/03/26 10:29:22;;;;;;;3.03;0.80;;;;;;;;;;5047613;28;20189;-69
2021/03/26 10:31:49;;;;;;;0.73;0.73;;;;;;;;;;5047518;28;20149;-70
2021/03/26 10:34:17;;;;;;;1.15;0.70;;;;;;;;;;5047546;28;20256;-69
2021/03/26 10:36:46;;;;;;;5.60;1.80;;;;;;;;;;5047500;28;20188;-69
2021/03/26 10:39:32;;;;;;;0.52;0.52;;;;;;;;;;5047387;28;20196;-69
2021/03/26 10:42:06;;;;;;;0.88;0.88;;;;;;;;;;5017227;28;20187;-69
2021/03/26 10:44:32;;;;;;;1.55;0.82;;;;;;;;;;5049419;28;20218;-69
2021/03/26 10:47:08;;;;;;;4.03;1.55;;;;;;;;;;5031264;28;20232;-69
2021/03/26 10:49:37;;;;;;;2.42;1.30;;;;;;;;;;5031402;28;20299;-70
2021/03/26 10:52:06;;;;;;;1.50;0.95;;;;;;;;;;5049364;28;20207;-69
2021/03/26 10:54:51;;;;;;;0.95;0.50;;;;;;;;;;5048911;28;20199;-69
2021/03/26 10:57:23;;;;;;;4.07;1.13;;;;;;;;;;5049133;28;20214;-71
2021/03/26 10:59:52;;;;;;;2.30;0.90;;;;;;;;;;5031535;28;20181;-69
2021/03/26 11:02:29;;;;;;;0.88;0.75;;;;;;;;;;5049063;28;20175;-69
2021/03/26 11:05:07;;;;;;;0.45;0.45;;;;;;;;;;5048967;28;20160;-70
2021/03/26 11:07:46;;;;;;;0.50;0.45;;;;;;;;;;5049124;28;20721;-70
2021/03/26 11:10:17;;;;;;;2.65;1.75;;;;;;;;;;5031313;28;20227;-70
2021/03/26 11:12:49;;;;;;;2.38;0.38;;;;;;;;;;5048977;28;20191;-69
2021/03/26 11:15:24;;;;;;;4.93;0.77;;;;;;;;;;5048252;28;20645;-68
2021/03/26 11:17:53;;;;;;;2.03;1.10;;;;;;;;;;5048813;28;20274;-69
2021/03/26 11:20:25;;;;;;;3.03;1.48;;;;;;;;;;5030654;28;20169;-69
2021/03/26 11:23:00;;;;;;;0.55;0.47;;;;;;;;;;5048805;28;20144;-69
2021/03/26 11:25:37;;;;;;;0.88;0.85;;;;;;;;;;5048818;28;20167;-70
2021/03/26 11:28:06;;;;;;;0.73;0.68;;;;;;;;;;5048802;28;20200;-71
2021/03/26 11:30:51;;;;;;;0.52;0.52;;;;;;;;;;5031107;28;20502;-69
2021/03/26 11:33:20;;;;;;;2.15;0.60;;;;;;;;;;5048524;28;20160;-68
2021/03/26 11:35:47;;;;;;;2.78;1.25;;;;;;;;;;5055811;28;20216;-69
2021/03/26 11:38:24;;;;;;;0.60;0.60;;;;;;;;;;5050180;28;20175;-67
2021/03/26 11:41:09;;;;;;;1.02;0.82;;;;;;;;;;5035085;28;20172;-68
2021/03/26 11:43:41;;;;;;;1.10;0.82;;;;;;;;;;5051189;28;20168;-68
2021/03/26 11:46:09;;;;;;;1.15;0.32;;;;;;;;;;5068292;28;20263;-68
2021/03/26 11:48:51;;;;;;;0.60;0.40;;;;;;;;;;5050022;28;20281;-68
2021/03/26 11:51:23;;;;;;;2.20;0.85;;;;;;;;;;5067614;28;20164;-68
2021/03/26 11:53:59;;;;;;;1.45;0.93;;;;;;;;;;5051534;28;20184;-68
2021/03/26 11:56:38;;;;;;;1.75;1.08;;;;;;;;;;5052447;28;20529;-68
2021/03/26 11:59:17;;;;;;;1.77;1.27;;;;;;;;;;5052765;28;20190;-75
2021/03/26 12:01:52;;;;;;;2.47;1.48;;;;;;;;;;5051075;28;20196;-75
2021/03/26 12:04:21;;;;;;;3.63;0.90;;;;;;;;;;5051250;28;20195;-75
2021/03/26 12:07:06;;;;;;;2.90;1.63;;;;;;;;;;5052379;28;20638;-75
2021/03/26 12:09:52;;;;;;;0.70;0.60;;;;;;;;;;5057919;28;20170;-75
2021/03/26 12:12:19;;;;;;;1.05;0.82;;;;;;;;;;5072236;28;20206;-75
2021/03/26 12:14:55;;;;;;;2.45;2.28;;;;;;;;;;5054045;28;20196;-74
2021/03/26 12:17:21;;;;;;;4.97;1.67;;;;;;;;;;5072242;28;20156;-75
2021/03/26 12:19:47;;;;;;;1.40;1.30;;;;;;;;;;5054154;28;20285;-75
2021/03/26 12:22:25;;;;;;;4.90;1.73;;;;;;;;;;5053470;28;20204;-75
2021/03/26 12:24:52;;;;;;;1.33;0.52;;;;;;;;;;5054000;28;20179;-75
2021/03/26 12:27:42;;;;;;;1.15;0.65;;;;;;;;;;5071815;28;20275;-74
2021/03/26 12:30:14;;;;;;;0.85;0.85;;;;;;;;;;5053734;28;20175;-76
2021/03/26 12:32:45;;;;;;;0.68;0.68;;;;;;;;;;5071092;28;20222;-76
2021/03/26 12:35:19;;;;;;;0.25;0.25;;;;;;;;;;5053318;28;20249;-76
2021/03/26 12:37:54;;;;;;;1.25;0.95;;;;;;;;;;5085367;28;20243;-75
2021/03/26 12:40:35;;;;;;;0.30;0.30;;;;;;;;;;5091380;28;20152;-75
2021/03/26 12:43:07;;;;;;;0.57;0.57;;;;;;;;;;5073034;28;20203;-75
2021/03/26 12:45:39;;;;;;;0.73;0.73;;;;;;;;;;5091125;28;20164;-75
2021/03/26 12:48:15;;;;;;;0.60;0.60;;;;;;;;;;5090947;28;20168;-75
2021/03/26 12:50:48;;;;;;;0.75;0.47;;;;;;;;;;5090262;28;20168;-75
2021/03/26 12:53:35;;;;;;;3.50;0.80;;;;;;;;;;5089692;28;20195;-75
2021/03/26 12:56:31;;;;;;;1.25;1.08;;;;;;;;;;5071996;28;20195;-74
2021/03/26 12:59:00;;;;;;;3.20;0.50;;;;;;;;;;5068582;28;20187;-74
2021/03/26 13:01:35;;;;;;;2.00;1.35;;;;;;;;;;5071133;28;20228;-75
2021/03/26 13:04:07;;;;;;;0.17;0.17;;;;;;;;;;5088929;28;20178;-74
2021/03/26 13:06:38;;;;;;;0.90;0.90;;;;;;;;;;5089391;28;20218;-74
2021/03/26 13:09:19;;;;;;;0.43;0.43;;;;;;;;;;5089641;28;20159;-76
2021/03/26 13:11:46;;;;;;;0.52;0.52;;;;;;;;;;5070730;28;20198;-75
2021/03/26 13:14:20;;;;;;;0.65;0.65;;;;;;;;;;5089551;28;20171;-75
2021/03/26 13:16:51;;;;;;;1.35;1.25;;;;;;;;;;5089499;28;20153;-75
2021/03/26 13:19:20;;;;;;;0.30;0.30;;;;;;;;;;5089171;28;20220;-75
2021/03/26 13:21:48;;;;;;;2.50;1.05;;;;;;;;;;5071608;28;20273;-75
2021/03/26 13:24:20;;;;;;;0.90;0.75;;;;;;;;;;5088355;28;20148;-75
2021/03/26 13:26:47;;;;;;;5.15;1.17;;;;;;;;;;5089391;28;20178;-75
2021/03/26 13:29:15;;;;;;;0.90;0.85;;;;;;;;;;5089601;28;20166;-75
2021/03/26 13:31:42;;;;;;;0.90;0.90;;;;;;;;;;5089178;28;20175;-75
2021/03/26 13:34:20;;;;;;;0.70;0.70;;;;;;;;;;5089346;28;20184;-76
2021/03/26 13:36:46;;;;;;;1.08;0.98;;;;;;;;;;5089495;28;20163;-76
2021/03/26 13:39:35;;;;;;;0.65;0.65;;;;;;;;;;5088559;28;20184;-76
2021/03/26 13:42:04;;;;;;;1.30;1.23;;;;;;;;;;5070887;28;20608;-76
2021/03/26 13:44:43;;;;;;;0.73;0.65;;;;;;;;;;5089211;28;20183;-76
2021/03/26 13:47:33;;;;;;;1.33;1.05;;;;;;;;;;5089248;28;20625;-76
2021/03/26 13:50:22;;;;;;;0.77;0.77;;;;;;;;;;4998050;28;834057;-75
2021/03/26 13:52:51;;;;;;;2.53;0.98;;;;;;;;;;5062162;28;20451;-75
2021/03/26 13:55:17;;;;;;;2.20;0.75;;;;;;;;;;5070369;28;20247;-76
2021/03/26 13:57:44;;;;;;;1.45;1.35;;;;;;;;;;5070361;28;20157;-75
2021/03/26 14:00:11;;;;;;;0.22;0.22;;;;;;;;;;5070194;28;20175;-75
2021/03/26 14:02:41;;;;;;;3.58;1.27;;;;;;;;;;5070070;28;20195;-76
2021/03/26 14:05:22;;;;;;;0.77;0.77;;;;;;;;;;5069928;28;20153;-76
2021/03/26 14:07:55;;;;;;;0.75;0.73;;;;;;;;;;5052073;28;20231;-75
2021/03/26 14:10:39;;;;;;;1.15;0.93;;;;;;;;;;5069868;28;20195;-76
2021/03/26 14:13:06;;;;;;;6.45;1.60;;;;;;;;;;5069849;28;20201;-76
2021/03/26 14:15:39;;;;;;;1.65;0.95;;;;;;;;;;5069544;28;20279;-76
2021/03/26 14:18:09;;;;;;;0.32;0.32;;;;;;;;;;5051153;28;20236;-75
2021/03/26 14:20:50;;;;;;;1.52;1.25;;;;;;;;;;5069925;28;20184;-76
2021/03/26 14:23:23;;;;;;;0.57;0.57;;;;;;;;;;5051751;28;20662;-75
2021/03/26 14:25:58;;;;;;;1.83;0.85;;;;;;;;;;5069707;28;20169;-75
2021/03/26 14:28:28;;;;;;;0.30;0.30;;;;;;;;;;5069722;28;20168;-75
2021/03/26 14:30:57;;;;;;;1.77;0.85;;;;;;;;;;5069964;28;20156;-68
2021/03/26 14:33:43;;;;;;;1.48;1.00;;;;;;;;;;5051475;28;20299;-68
2021/03/26 14:36:12;;;;;;;1.35;1.23;;;;;;;;;;5069559;28;20200;-68
2021/03/26 14:38:48;;;;;;;0.63;0.63;;;;;;;;;;5069242;28;20544;-68
2021/03/26 14:41:14;;;;;;;0.10;0.10;;;;;;;;;;5069375;28;20160;-67
2021/03/26 14:43:42;;;;;;;4.78;0.55;;;;;;;;;;5051150;28;20276;-68
2021/03/26 14:46:08;;;;;;;0.20;0.20;;;;;;;;;;5051435;28;20211;-68
2021/03/26 14:48:38;;;;;;;0.80;0.60;;;;;;;;;;5052873;28;20228;-68
2021/03/26 14:51:27;;;;;;;0.45;0.45;;;;;;;;;;5068051;28;20258;-68
2021/03/26 14:54:14;;;;;;;0.85;0.85;;;;;;;;;;5049015;28;20267;-68
2021/03/26 14:56:48;;;;;;;1.10;0.93;;;;;;;;;;5068845;28;20196;-67
2021/03/26 14:59:21;;;;;;;0.63;0.47;;;;;;;;;;5068997;28;20167;-67
2021/03/26 15:01:48;;;;;;;1.45;0.68;;;;;;;;;;5068914;28;20212;-68
2021/03/26 15:04:21;;;;;;;0.40;0.40;;;;;;;;;;5069046;28;20609;-75
2021/03/26 15:07:06;;;;;;;0.65;0.65;;;;;;;;;;5067801;28;20172;-75
2021/03/26 15:09:35;;;;;;;0.85;0.60;;;;;;;;;;5069113;28;20179;-76
2021/03/26 15:12:07;;;;;;;0.40;0.40;;;;;;;;;;5068958;28;20193;-75
2021/03/26 15:14:40;;;;;;;0.82;0.82;;;;;;;;;;5067646;28;20221;-75
2021/03/26 15:17:25;;;;;;;1.88;1.15;;;;;;;;;;5068762;28;20180;-75
2021/03/26 15:19:52;;;;;;;0.73;0.73;;;;;;;;;;5068721;28;20164;-75
2021/03/26 15:22:37;;;;;;;3.65;1.17;;;;;;;;;;5068726;28;20204;-75